PWSweather.com
Personal Weather Stations
Station Observations
MACKBIG
Historic Main Street, Unionville, ON L3R6A5

Historic Main StreetUnionville, ON L3R6A5

Lat: 43.875506, Lon: -79.312903

Elevation: 590

Station Type: Davis VP2 + 6163

http://www.mackweather.com

Latest ConditionsUpdated 3:00:06 PM EST Friday, Feb 15, 2019
Currently Today's Max Today's Min Today's Average
Temperature 32.1°F0.1°C 38.1°F3.4°C 32.1°F0.1°C 35.9°F2.2°C
Dew Point 21.3°F-5.9°C 36.5°F2.5°C 21.1°F-6.1°C 29.2°F-1.6°C
Winds 6.0 mph WSW9.7 kmh WSW 16.0 mph -25.7 kmh - - 9.6 mph 15.4 kmh
Wind Gusts 12.0 mph19.3 kmh 25.0 mph40.2 kmh - -
Humidity 64% 94% 61% 77%
Pressure 29.54 in1000.3 mb 29.54 in1000.3 mb 29.38 in994.9 mb -
Precipitation - 0.22 in5.6 mm - -
Hour Temp Dew Point Humidity Winds Wind Gusts Pressure Precip Precip Rate Daily Precip Total
03:00 PM 32.1°F0.1°C 21.3°F-5.9°C 64% 6.0 mph WSW9.7 kmh WSW 12.0 mph19.3 kmh 29.54 in1000.3 mb - 0.00 in0.0 mm 0.22 in5.6 mm
02:50 PM 32.7°F0.4°C 21.1°F-6.1°C 62% 9.0 mph WSW14.5 kmh WSW 17.0 mph27.4 kmh 29.53 in1000.0 mb - 0.01 in0.3 mm 0.22 in5.6 mm
02:40 PM 33.5°F0.8°C 21.5°F-5.8°C 61% 9.0 mph W14.5 kmh W 15.0 mph24.1 kmh 29.52 in999.7 mb - 0.00 in0.0 mm 0.21 in5.3 mm
02:30 PM 34.4°F1.3°C 22.3°F-5.4°C 61% 10.0 mph WSW16.1 kmh WSW 20.0 mph32.2 kmh 29.52 in999.7 mb - 0.00 in0.0 mm 0.21 in5.3 mm
02:20 PM 33.5°F0.8°C 21.9°F-5.6°C 62% 12.0 mph W19.3 kmh W 23.0 mph37.0 kmh 29.51 in999.3 mb - 0.00 in0.0 mm 0.21 in5.3 mm
02:10 PM 33.4°F0.8°C 22.2°F-5.4°C 63% 8.0 mph WSW12.9 kmh WSW 22.0 mph35.4 kmh 29.50 in999.0 mb - 0.00 in0.0 mm 0.21 in5.3 mm
02:00 PM 33.7°F0.9°C 23.2°F-4.9°C 65% 10.0 mph WSW16.1 kmh WSW 25.0 mph40.2 kmh 29.50 in999.0 mb - 0.00 in0.0 mm 0.21 in5.3 mm
01:50 PM 33.4°F0.8°C 23.3°F-4.8°C 66% 15.0 mph W24.1 kmh W 24.0 mph38.6 kmh 29.49 in998.6 mb - 0.00 in0.0 mm 0.21 in5.3 mm
01:40 PM 33.3°F0.7°C 23.9°F-4.5°C 68% 14.0 mph WSW22.5 kmh WSW 24.0 mph38.6 kmh 29.49 in998.6 mb - 0.01 in0.3 mm 0.21 in5.3 mm
01:30 PM 34.1°F1.2°C 24.2°F-4.3°C 67% 16.0 mph SW25.7 kmh SW 25.0 mph40.2 kmh 29.48 in998.3 mb - 0.01 in0.3 mm 0.21 in5.3 mm
01:20 PM 34.6°F1.4°C 25.8°F-3.4°C 70% 13.0 mph WSW20.9 kmh WSW 23.0 mph37.0 kmh 29.48 in998.3 mb - 0.00 in0.0 mm 0.21 in5.3 mm
01:10 PM 35.1°F1.7°C 25.9°F-3.4°C 69% 13.0 mph WNW20.9 kmh WNW 22.0 mph35.4 kmh 29.48 in998.3 mb - 0.00 in0.0 mm 0.21 in5.3 mm
01:00 PM 35.8°F2.1°C 27.3°F-2.6°C 71% 7.0 mph W11.3 kmh W 16.0 mph25.7 kmh 29.48 in998.3 mb - 0.01 in0.3 mm 0.21 in5.3 mm
12:50 PM 35.7°F2.1°C 27.6°F-2.4°C 72% 14.0 mph W22.5 kmh W 20.0 mph32.2 kmh 29.47 in998.0 mb - 0.00 in0.0 mm 0.20 in5.1 mm
12:40 PM 36.0°F2.2°C 27.8°F-2.3°C 72% 13.0 mph WSW20.9 kmh WSW 20.0 mph32.2 kmh 29.47 in998.0 mb - 0.00 in0.0 mm 0.20 in5.1 mm
12:30 PM 36.2°F2.3°C 27.7°F-2.4°C 71% 15.0 mph SW24.1 kmh SW 24.0 mph38.6 kmh 29.47 in998.0 mb - 0.01 in0.3 mm 0.20 in5.1 mm
12:20 PM 36.9°F2.7°C 29.1°F-1.6°C 73% 15.0 mph WSW24.1 kmh WSW 20.0 mph32.2 kmh 29.47 in998.0 mb - 0.00 in0.0 mm 0.19 in4.8 mm
12:10 PM 36.5°F2.5°C 28.7°F-1.8°C 73% 9.0 mph W14.5 kmh W 17.0 mph27.4 kmh 29.47 in998.0 mb - 0.01 in0.3 mm 0.19 in4.8 mm
12:00 PM 36.4°F2.4°C 28.2°F-2.1°C 72% 7.0 mph WSW11.3 kmh WSW 13.0 mph20.9 kmh 29.46 in997.6 mb - 0.01 in0.3 mm 0.19 in4.8 mm
11:50 AM 36.9°F2.7°C 28.4°F-2.0°C 71% 7.0 mph SSW11.3 kmh SSW 20.0 mph32.2 kmh 29.46 in997.6 mb - 0.00 in0.0 mm 0.18 in4.6 mm
11:40 AM 37.3°F2.9°C 28.8°F-1.8°C 71% 14.0 mph WSW22.5 kmh WSW 23.0 mph37.0 kmh 29.46 in997.6 mb - 0.01 in0.3 mm 0.18 in4.6 mm
11:30 AM 37.1°F2.8°C 28.9°F-1.7°C 72% 8.0 mph WSW12.9 kmh WSW 14.0 mph22.5 kmh 29.45 in997.3 mb - 0.00 in0.0 mm 0.17 in4.3 mm
11:20 AM 36.8°F2.7°C 29.0°F-1.7°C 73% 9.0 mph NW14.5 kmh NW 20.0 mph32.2 kmh 29.45 in997.3 mb - 0.01 in0.3 mm 0.17 in4.3 mm
11:10 AM 36.8°F2.7°C 29.3°F-1.5°C 74% 12.0 mph WSW19.3 kmh WSW 23.0 mph37.0 kmh 29.44 in997.0 mb - 0.00 in0.0 mm 0.17 in4.3 mm
11:00 AM 36.9°F2.7°C 30.0°F-1.1°C 76% 10.0 mph SW16.1 kmh SW 20.0 mph32.2 kmh 29.44 in997.0 mb - 0.00 in0.0 mm 0.17 in4.3 mm
10:50 AM 36.9°F2.7°C 30.4°F-0.9°C 77% 7.0 mph W11.3 kmh W 15.0 mph24.1 kmh 29.44 in997.0 mb - 0.01 in0.3 mm 0.17 in4.3 mm
10:40 AM 36.6°F2.6°C 30.4°F-0.9°C 78% 9.0 mph W14.5 kmh W 14.0 mph22.5 kmh 29.44 in997.0 mb - 0.00 in0.0 mm 0.16 in4.1 mm
10:30 AM 36.5°F2.5°C 30.9°F-0.6°C 80% 15.0 mph WSW24.1 kmh WSW 23.0 mph37.0 kmh 29.44 in997.0 mb - 0.01 in0.3 mm 0.16 in4.1 mm
10:20 AM 36.6°F2.6°C 32.2°F0.1°C 84% 9.0 mph W14.5 kmh W 13.0 mph20.9 kmh 29.43 in996.6 mb - 0.00 in0.0 mm 0.15 in3.8 mm
10:10 AM 36.4°F2.4°C 33.2°F0.7°C 88% 9.0 mph W14.5 kmh W 20.0 mph32.2 kmh 29.43 in996.6 mb - 0.01 in0.3 mm 0.15 in3.8 mm
10:00 AM 36.1°F2.3°C 33.5°F0.8°C 90% 7.0 mph SW11.3 kmh SW 9.0 mph14.5 kmh 29.42 in996.3 mb - 0.00 in0.0 mm 0.14 in3.6 mm
09:50 AM 35.9°F2.2°C 33.5°F0.8°C 91% 8.0 mph WSW12.9 kmh WSW 15.0 mph24.1 kmh 29.42 in996.3 mb - 0.01 in0.3 mm 0.14 in3.6 mm
09:40 AM 36.0°F2.2°C 33.9°F1.1°C 92% 10.0 mph W16.1 kmh W 15.0 mph24.1 kmh 29.42 in996.3 mb - 0.01 in0.3 mm 0.13 in3.3 mm
09:30 AM 36.2°F2.3°C 34.4°F1.3°C 93% 5.0 mph WNW8.0 kmh WNW 7.0 mph11.3 kmh 29.41 in995.9 mb - 0.01 in0.3 mm 0.13 in3.3 mm
09:20 AM 36.7°F2.6°C 34.8°F1.6°C 93% 12.0 mph WSW19.3 kmh WSW 20.0 mph32.2 kmh 29.41 in995.9 mb - 0.01 in0.3 mm 0.12 in3.0 mm
09:10 AM 37.5°F3.1°C 35.7°F2.1°C 93% 13.0 mph W20.9 kmh W 25.0 mph40.2 kmh 29.40 in995.6 mb - 0.02 in0.5 mm 0.12 in3.0 mm
09:00 AM 37.9°F3.3°C 36.3°F2.4°C 94% 6.0 mph WSW9.7 kmh WSW 7.0 mph11.3 kmh 29.39 in995.3 mb - 0.01 in0.3 mm 0.10 in2.5 mm
08:50 AM 38.1°F3.4°C 36.5°F2.5°C 94% 5.0 mph WSW8.0 kmh WSW 12.0 mph19.3 kmh 29.39 in995.3 mb - 0.01 in0.3 mm 0.09 in2.3 mm
08:40 AM 38.0°F3.3°C 36.4°F2.4°C 94% 5.0 mph WSW8.0 kmh WSW 10.0 mph16.1 kmh 29.39 in995.3 mb - 0.01 in0.3 mm 0.09 in2.3 mm
08:30 AM 37.9°F3.3°C 36.4°F2.4°C 94% 6.0 mph WSW9.7 kmh WSW 12.0 mph19.3 kmh 29.39 in995.3 mb - 0.01 in0.3 mm 0.08 in2.0 mm
08:20 AM 37.7°F3.2°C 36.2°F2.3°C 94% 2.0 mph WSW3.2 kmh WSW 5.0 mph8.0 kmh 29.38 in994.9 mb - 0.01 in0.3 mm 0.07 in1.8 mm
08:10 AM 37.7°F3.2°C 36.1°F2.3°C 94% 2.0 mph WSW3.2 kmh WSW 6.0 mph9.7 kmh 29.38 in994.9 mb - 0.01 in0.3 mm 0.06 in1.5 mm